sensor_id;sensor_type;location;lat;lon;timestamp;temperature;humidity
55711;DHT22;41612;51.994;5.880;2022-07-23T00:00:33;18.00;71.10
55711;DHT22;41612;51.994;5.880;2022-07-23T00:02:59;18.00;71.30
55711;DHT22;41612;51.994;5.880;2022-07-23T00:05:25;17.90;71.40
55711;DHT22;41612;51.994;5.880;2022-07-23T00:07:51;17.90;71.40
55711;DHT22;41612;51.994;5.880;2022-07-23T00:10:16;17.90;71.50
55711;DHT22;41612;51.994;5.880;2022-07-23T00:12:42;17.90;71.60
55711;DHT22;41612;51.994;5.880;2022-07-23T00:15:10;17.80;71.70
55711;DHT22;41612;51.994;5.880;2022-07-23T00:17:36;17.80;71.70
55711;DHT22;41612;51.994;5.880;2022-07-23T00:20:02;17.70;71.80
55711;DHT22;41612;51.994;5.880;2022-07-23T00:22:28;17.80;71.90
55711;DHT22;41612;51.994;5.880;2022-07-23T00:24:55;17.70;71.90
55711;DHT22;41612;51.994;5.880;2022-07-23T00:27:21;17.70;72.00
55711;DHT22;41612;51.994;5.880;2022-07-23T00:29:46;17.70;72.10
55711;DHT22;41612;51.994;5.880;2022-07-23T00:32:12;17.60;72.10
55711;DHT22;41612;51.994;5.880;2022-07-23T00:34:38;17.60;72.20
55711;DHT22;41612;51.994;5.880;2022-07-23T00:37:04;17.50;72.30
55711;DHT22;41612;51.994;5.880;2022-07-23T00:39:30;17.50;72.40
55711;DHT22;41612;51.994;5.880;2022-07-23T00:41:55;17.50;72.40
55711;DHT22;41612;51.994;5.880;2022-07-23T00:44:26;17.40;72.50
55711;DHT22;41612;51.994;5.880;2022-07-23T00:46:57;17.40;72.50
55711;DHT22;41612;51.994;5.880;2022-07-23T00:49:25;17.40;72.60
55711;DHT22;41612;51.994;5.880;2022-07-23T00:51:51;17.40;72.70
55711;DHT22;41612;51.994;5.880;2022-07-23T00:54:19;17.30;72.80
55711;DHT22;41612;51.994;5.880;2022-07-23T00:56:46;17.30;72.80
55711;DHT22;41612;51.994;5.880;2022-07-23T00:59:12;17.30;72.90
55711;DHT22;41612;51.994;5.880;2022-07-23T01:01:38;17.30;73.00
55711;DHT22;41612;51.994;5.880;2022-07-23T01:04:04;17.20;73.00
55711;DHT22;41612;51.994;5.880;2022-07-23T01:06:35;17.20;73.10
55711;DHT22;41612;51.994;5.880;2022-07-23T01:09:03;17.20;73.20
55711;DHT22;41612;51.994;5.880;2022-07-23T01:11:31;17.20;73.20
55711;DHT22;41612;51.994;5.880;2022-07-23T01:13:56;17.20;73.30
55711;DHT22;41612;51.994;5.880;2022-07-23T01:16:22;17.10;73.30
55711;DHT22;41612;51.994;5.880;2022-07-23T01:18:48;17.10;73.40
55711;DHT22;41612;51.994;5.880;2022-07-23T01:21:18;17.10;73.40
55711;DHT22;41612;51.994;5.880;2022-07-23T01:23:44;17.00;73.40
55711;DHT22;41612;51.994;5.880;2022-07-23T01:26:09;17.00;73.40
55711;DHT22;41612;51.994;5.880;2022-07-23T01:28:37;17.00;73.50
55711;DHT22;41612;51.994;5.880;2022-07-23T01:31:03;16.90;73.60
55711;DHT22;41612;51.994;5.880;2022-07-23T01:33:33;16.90;73.60
55711;DHT22;41612;51.994;5.880;2022-07-23T01:35:58;16.90;73.70
55711;DHT22;41612;51.994;5.880;2022-07-23T01:38:26;16.90;73.70
55711;DHT22;41612;51.994;5.880;2022-07-23T01:40:51;16.80;73.70
55711;DHT22;41612;51.994;5.880;2022-07-23T01:43:18;16.80;73.70
55711;DHT22;41612;51.994;5.880;2022-07-23T01:45:43;16.80;73.80
55711;DHT22;41612;51.994;5.880;2022-07-23T01:48:11;16.80;73.70
55711;DHT22;41612;51.994;5.880;2022-07-23T01:50:48;16.80;73.70
55711;DHT22;41612;51.994;5.880;2022-07-23T01:53:20;16.70;73.80
55711;DHT22;41612;51.994;5.880;2022-07-23T01:55:46;16.80;73.90
55711;DHT22;41612;51.994;5.880;2022-07-23T01:58:12;16.70;73.90
55711;DHT22;41612;51.994;5.880;2022-07-23T02:00:38;16.70;73.90
55711;DHT22;41612;51.994;5.880;2022-07-23T02:03:04;16.70;73.90
55711;DHT22;41612;51.994;5.880;2022-07-23T02:05:30;16.70;74.00
55711;DHT22;41612;51.994;5.880;2022-07-23T02:07:59;16.60;73.90
55711;DHT22;41612;51.994;5.880;2022-07-23T02:10:25;16.60;74.00
55711;DHT22;41612;51.994;5.880;2022-07-23T02:12:51;16.60;74.10
55711;DHT22;41612;51.994;5.880;2022-07-23T02:15:17;16.50;74.20
55711;DHT22;41612;51.994;5.880;2022-07-23T02:17:43;16.50;74.10
55711;DHT22;41612;51.994;5.880;2022-07-23T02:20:10;16.50;74.20
55711;DHT22;41612;51.994;5.880;2022-07-23T02:22:36;16.50;74.20
55711;DHT22;41612;51.994;5.880;2022-07-23T02:25:03;16.50;74.10
55711;DHT22;41612;51.994;5.880;2022-07-23T02:27:30;16.40;74.20
55711;DHT22;41612;51.994;5.880;2022-07-23T02:29:56;16.40;74.20
55711;DHT22;41612;51.994;5.880;2022-07-23T02:32:23;16.40;74.30
55711;DHT22;41612;51.994;5.880;2022-07-23T02:34:50;16.40;74.30
55711;DHT22;41612;51.994;5.880;2022-07-23T02:37:17;16.30;74.40
55711;DHT22;41612;51.994;5.880;2022-07-23T02:39:43;16.30;74.40
55711;DHT22;41612;51.994;5.880;2022-07-23T02:42:10;16.30;74.30
55711;DHT22;41612;51.994;5.880;2022-07-23T02:44:36;16.30;74.30
55711;DHT22;41612;51.994;5.880;2022-07-23T02:47:03;16.20;74.30
55711;DHT22;41612;51.994;5.880;2022-07-23T02:49:28;16.30;74.40
55711;DHT22;41612;51.994;5.880;2022-07-23T02:52:02;16.20;74.40
55711;DHT22;41612;51.994;5.880;2022-07-23T02:54:28;16.20;74.30
55711;DHT22;41612;51.994;5.880;2022-07-23T02:56:54;16.20;74.30
55711;DHT22;41612;51.994;5.880;2022-07-23T02:59:20;16.20;74.30
55711;DHT22;41612;51.994;5.880;2022-07-23T03:01:49;16.20;74.30
55711;DHT22;41612;51.994;5.880;2022-07-23T03:04:17;16.20;74.30
55711;DHT22;41612;51.994;5.880;2022-07-23T03:06:42;16.20;74.30
55711;DHT22;41612;51.994;5.880;2022-07-23T03:09:08;16.20;74.40
55711;DHT22;41612;51.994;5.880;2022-07-23T03:11:34;16.10;74.30
55711;DHT22;41612;51.994;5.880;2022-07-23T03:14:00;16.10;74.20
55711;DHT22;41612;51.994;5.880;2022-07-23T03:16:25;16.10;74.40
55711;DHT22;41612;51.994;5.880;2022-07-23T03:18:51;16.10;74.40
55711;DHT22;41612;51.994;5.880;2022-07-23T03:21:17;16.10;74.50
55711;DHT22;41612;51.994;5.880;2022-07-23T03:23:43;16.00;74.50
55711;DHT22;41612;51.994;5.880;2022-07-23T03:26:08;16.00;74.50
55711;DHT22;41612;51.994;5.880;2022-07-23T03:28:34;16.00;74.50
55711;DHT22;41612;51.994;5.880;2022-07-23T03:31:00;16.00;74.60
55711;DHT22;41612;51.994;5.880;2022-07-23T03:33:25;16.00;74.70
55711;DHT22;41612;51.994;5.880;2022-07-23T03:35:52;16.00;74.70
55711;DHT22;41612;51.994;5.880;2022-07-23T03:38:24;16.00;74.70
55711;DHT22;41612;51.994;5.880;2022-07-23T03:40:50;16.00;74.70
55711;DHT22;41612;51.994;5.880;2022-07-23T03:43:16;16.00;74.70
55711;DHT22;41612;51.994;5.880;2022-07-23T03:45:44;15.90;74.70
55711;DHT22;41612;51.994;5.880;2022-07-23T03:48:10;15.90;74.60
55711;DHT22;41612;51.994;5.880;2022-07-23T03:50:36;15.90;74.70
55711;DHT22;41612;51.994;5.880;2022-07-23T03:53:02;15.90;74.60
55711;DHT22;41612;51.994;5.880;2022-07-23T03:55:28;15.90;74.60
55711;DHT22;41612;51.994;5.880;2022-07-23T03:57:54;15.90;74.60
55711;DHT22;41612;51.994;5.880;2022-07-23T04:00:19;15.90;74.60
55711;DHT22;41612;51.994;5.880;2022-07-23T04:02:49;15.80;74.50
55711;DHT22;41612;51.994;5.880;2022-07-23T04:05:16;15.80;74.50
55711;DHT22;41612;51.994;5.880;2022-07-23T04:07:43;15.80;74.50
55711;DHT22;41612;51.994;5.880;2022-07-23T04:10:09;15.80;74.40
55711;DHT22;41612;51.994;5.880;2022-07-23T04:12:34;15.80;74.40
55711;DHT22;41612;51.994;5.880;2022-07-23T04:15:02;15.80;74.30
55711;DHT22;41612;51.994;5.880;2022-07-23T04:17:27;15.80;74.40
55711;DHT22;41612;51.994;5.880;2022-07-23T04:19:54;15.80;74.30
55711;DHT22;41612;51.994;5.880;2022-07-23T04:22:22;15.80;74.30
55711;DHT22;41612;51.994;5.880;2022-07-23T04:24:48;15.80;74.30
55711;DHT22;41612;51.994;5.880;2022-07-23T04:27:15;15.80;74.30
55711;DHT22;41612;51.994;5.880;2022-07-23T04:29:40;15.80;74.20
55711;DHT22;41612;51.994;5.880;2022-07-23T04:32:06;15.80;74.10
55711;DHT22;41612;51.994;5.880;2022-07-23T04:34:32;15.90;74.10
55711;DHT22;41612;51.994;5.880;2022-07-23T04:36:58;15.90;74.00
55711;DHT22;41612;51.994;5.880;2022-07-23T04:39:25;15.90;73.80
55711;DHT22;41612;51.994;5.880;2022-07-23T04:41:51;15.90;73.70
55711;DHT22;41612;51.994;5.880;2022-07-23T04:44:17;16.00;73.60
55711;DHT22;41612;51.994;5.880;2022-07-23T04:46:43;16.00;73.40
55711;DHT22;41612;51.994;5.880;2022-07-23T04:49:08;16.00;73.30
55711;DHT22;41612;51.994;5.880;2022-07-23T04:51:34;16.00;73.20
55711;DHT22;41612;51.994;5.880;2022-07-23T04:54:00;16.10;73.10
55711;DHT22;41612;51.994;5.880;2022-07-23T04:56:27;16.00;72.90
55711;DHT22;41612;51.994;5.880;2022-07-23T04:58:53;16.10;72.90
55711;DHT22;41612;51.994;5.880;2022-07-23T05:01:19;16.20;72.70
55711;DHT22;41612;51.994;5.880;2022-07-23T05:03:45;16.20;72.60
55711;DHT22;41612;51.994;5.880;2022-07-23T05:06:11;16.20;72.50
55711;DHT22;41612;51.994;5.880;2022-07-23T05:08:37;16.20;72.40
55711;DHT22;41612;51.994;5.880;2022-07-23T05:11:03;16.20;72.20
55711;DHT22;41612;51.994;5.880;2022-07-23T05:13:29;16.30;72.10
55711;DHT22;41612;51.994;5.880;2022-07-23T05:15:55;16.30;72.00
55711;DHT22;41612;51.994;5.880;2022-07-23T05:18:21;16.30;71.90
55711;DHT22;41612;51.994;5.880;2022-07-23T05:20:47;16.30;71.70
55711;DHT22;41612;51.994;5.880;2022-07-23T05:23:17;16.40;71.60
55711;DHT22;41612;51.994;5.880;2022-07-23T05:25:43;16.40;71.50
55711;DHT22;41612;51.994;5.880;2022-07-23T05:28:09;16.40;71.30
55711;DHT22;41612;51.994;5.880;2022-07-23T05:30:35;16.50;71.20
55711;DHT22;41612;51.994;5.880;2022-07-23T05:33:05;16.50;71.10
55711;DHT22;41612;51.994;5.880;2022-07-23T05:35:33;16.50;70.90
55711;DHT22;41612;51.994;5.880;2022-07-23T05:38:18;16.50;70.80
55711;DHT22;41612;51.994;5.880;2022-07-23T05:40:44;16.60;70.70
55711;DHT22;41612;51.994;5.880;2022-07-23T05:43:10;16.60;70.60
55711;DHT22;41612;51.994;5.880;2022-07-23T05:45:36;16.70;70.40
55711;DHT22;41612;51.994;5.880;2022-07-23T05:48:01;16.70;70.20
55711;DHT22;41612;51.994;5.880;2022-07-23T05:50:33;16.80;70.00
55711;DHT22;41612;51.994;5.880;2022-07-23T05:53:06;16.80;69.80
55711;DHT22;41612;51.994;5.880;2022-07-23T05:55:52;16.90;69.70
55711;DHT22;41612;51.994;5.880;2022-07-23T05:58:18;16.90;69.50
55711;DHT22;41612;51.994;5.880;2022-07-23T06:00:44;17.00;69.30
55711;DHT22;41612;51.994;5.880;2022-07-23T06:03:10;17.00;69.10
55711;DHT22;41612;51.994;5.880;2022-07-23T06:05:36;17.10;68.90
55711;DHT22;41612;51.994;5.880;2022-07-23T06:08:02;17.20;69.40
55711;DHT22;41612;51.994;5.880;2022-07-23T06:10:28;17.20;68.70
55711;DHT22;41612;51.994;5.880;2022-07-23T06:12:55;17.30;68.70
55711;DHT22;41612;51.994;5.880;2022-07-23T06:20:36;17.50;67.90
55711;DHT22;41612;51.994;5.880;2022-07-23T06:23:03;17.50;67.70
55711;DHT22;41612;51.994;5.880;2022-07-23T06:25:29;17.70;67.40
55711;DHT22;41612;51.994;5.880;2022-07-23T06:27:54;17.70;66.90
55711;DHT22;41612;51.994;5.880;2022-07-23T06:30:20;17.80;67.50
55711;DHT22;41612;51.994;5.880;2022-07-23T06:32:47;17.80;68.20
55711;DHT22;41612;51.994;5.880;2022-07-23T06:35:14;17.90;67.60
55711;DHT22;41612;51.994;5.880;2022-07-23T06:37:40;18.00;66.90
55711;DHT22;41612;51.994;5.880;2022-07-23T06:40:06;18.00;67.00
55711;DHT22;41612;51.994;5.880;2022-07-23T06:42:35;18.10;66.60
55711;DHT22;41612;51.994;5.880;2022-07-23T06:45:08;18.20;65.90
55711;DHT22;41612;51.994;5.880;2022-07-23T06:47:36;18.20;66.90
55711;DHT22;41612;51.994;5.880;2022-07-23T06:50:02;18.30;67.70
55711;DHT22;41612;51.994;5.880;2022-07-23T06:52:28;18.30;67.60
55711;DHT22;41612;51.994;5.880;2022-07-23T06:54:54;18.30;67.40
55711;DHT22;41612;51.994;5.880;2022-07-23T06:57:20;18.40;65.30
55711;DHT22;41612;51.994;5.880;2022-07-23T06:59:46;18.50;64.80
55711;DHT22;41612;51.994;5.880;2022-07-23T07:02:11;18.50;65.20
55711;DHT22;41612;51.994;5.880;2022-07-23T07:04:37;18.60;66.70
55711;DHT22;41612;51.994;5.880;2022-07-23T07:07:03;18.70;64.70
55711;DHT22;41612;51.994;5.880;2022-07-23T07:09:29;18.70;65.60
55711;DHT22;41612;51.994;5.880;2022-07-23T07:11:54;18.80;63.60
55711;DHT22;41612;51.994;5.880;2022-07-23T07:14:20;18.90;63.30
55711;DHT22;41612;51.994;5.880;2022-07-23T07:16:46;19.00;65.40
55711;DHT22;41612;51.994;5.880;2022-07-23T07:19:11;19.10;64.60
55711;DHT22;41612;51.994;5.880;2022-07-23T07:21:37;19.20;62.80
55711;DHT22;41612;51.994;5.880;2022-07-23T07:24:03;19.30;62.30
55711;DHT22;41612;51.994;5.880;2022-07-23T07:26:29;19.40;62.00
55711;DHT22;41612;51.994;5.880;2022-07-23T07:28:56;19.50;61.40
55711;DHT22;41612;51.994;5.880;2022-07-23T07:31:22;19.70;61.10
55711;DHT22;41612;51.994;5.880;2022-07-23T07:33:47;19.60;61.10
55711;DHT22;41612;51.994;5.880;2022-07-23T07:36:15;19.70;61.30
55711;DHT22;41612;51.994;5.880;2022-07-23T07:38:40;19.80;60.90
55711;DHT22;41612;51.994;5.880;2022-07-23T07:41:06;19.80;60.60
55711;DHT22;41612;51.994;5.880;2022-07-23T07:43:33;20.00;60.30
55711;DHT22;41612;51.994;5.880;2022-07-23T07:45:59;20.00;60.50
55711;DHT22;41612;51.994;5.880;2022-07-23T07:48:24;20.10;60.20
55711;DHT22;41612;51.994;5.880;2022-07-23T07:50:50;20.20;60.50
55711;DHT22;41612;51.994;5.880;2022-07-23T07:53:17;20.30;59.90
55711;DHT22;41612;51.994;5.880;2022-07-23T07:55:50;20.30;59.40
55711;DHT22;41612;51.994;5.880;2022-07-23T07:58:15;20.50;59.20
55711;DHT22;41612;51.994;5.880;2022-07-23T08:00:41;20.50;59.50
55711;DHT22;41612;51.994;5.880;2022-07-23T08:03:07;20.60;60.50
55711;DHT22;41612;51.994;5.880;2022-07-23T08:05:32;20.80;59.00
55711;DHT22;41612;51.994;5.880;2022-07-23T08:07:58;20.80;59.00
55711;DHT22;41612;51.994;5.880;2022-07-23T08:10:25;20.90;58.40
55711;DHT22;41612;51.994;5.880;2022-07-23T08:12:54;20.90;58.90
55711;DHT22;41612;51.994;5.880;2022-07-23T08:15:23;21.00;58.60
55711;DHT22;41612;51.994;5.880;2022-07-23T08:17:48;21.20;58.10
55711;DHT22;41612;51.994;5.880;2022-07-23T08:20:16;21.30;58.00
55711;DHT22;41612;51.994;5.880;2022-07-23T08:22:57;21.40;57.00
55711;DHT22;41612;51.994;5.880;2022-07-23T08:25:29;21.40;56.60
55711;DHT22;41612;51.994;5.880;2022-07-23T08:27:56;21.50;56.90
55711;DHT22;41612;51.994;5.880;2022-07-23T08:30:22;21.60;56.70
55711;DHT22;41612;51.994;5.880;2022-07-23T08:33:08;21.80;56.20
55711;DHT22;41612;51.994;5.880;2022-07-23T08:35:41;21.80;55.90
55711;DHT22;41612;51.994;5.880;2022-07-23T08:38:09;21.80;56.10
55711;DHT22;41612;51.994;5.880;2022-07-23T08:40:42;21.90;55.90
55711;DHT22;41612;51.994;5.880;2022-07-23T08:43:11;22.00;55.10
55711;DHT22;41612;51.994;5.880;2022-07-23T08:45:39;22.20;55.00
55711;DHT22;41612;51.994;5.880;2022-07-23T08:48:11;22.30;54.10
55711;DHT22;41612;51.994;5.880;2022-07-23T08:50:37;22.60;54.50
55711;DHT22;41612;51.994;5.880;2022-07-23T08:53:07;22.70;53.20
55711;DHT22;41612;51.994;5.880;2022-07-23T08:55:33;22.80;52.60
55711;DHT22;41612;51.994;5.880;2022-07-23T08:58:00;23.00;52.90
55711;DHT22;41612;51.994;5.880;2022-07-23T09:00:26;23.10;51.30
55711;DHT22;41612;51.994;5.880;2022-07-23T09:02:51;23.20;51.50
55711;DHT22;41612;51.994;5.880;2022-07-23T09:05:19;23.30;51.30
55711;DHT22;41612;51.994;5.880;2022-07-23T09:11:00;23.70;51.20
55711;DHT22;41612;51.994;5.880;2022-07-23T09:13:36;23.80;50.30
55711;DHT22;41612;51.994;5.880;2022-07-23T09:16:08;24.00;50.50
55711;DHT22;41612;51.994;5.880;2022-07-23T09:18:46;24.10;50.90
55711;DHT22;41612;51.994;5.880;2022-07-23T09:23:53;24.50;50.40
55711;DHT22;41612;51.994;5.880;2022-07-23T09:26:33;24.50;49.40
55711;DHT22;41612;51.994;5.880;2022-07-23T09:29:03;24.60;48.40
55711;DHT22;41612;51.994;5.880;2022-07-23T09:36:43;24.90;47.90
55711;DHT22;41612;51.994;5.880;2022-07-23T09:39:09;25.00;47.60
55711;DHT22;41612;51.994;5.880;2022-07-23T09:41:45;25.00;48.10
55711;DHT22;41612;51.994;5.880;2022-07-23T09:44:19;25.20;47.80
55711;DHT22;41612;51.994;5.880;2022-07-23T09:46:47;25.40;47.50
55711;DHT22;41612;51.994;5.880;2022-07-23T09:49:21;25.70;47.00
55711;DHT22;41612;51.994;5.880;2022-07-23T09:51:50;25.80;47.10
55711;DHT22;41612;51.994;5.880;2022-07-23T09:56:48;25.80;46.80
55711;DHT22;41612;51.994;5.880;2022-07-23T09:59:16;25.70;45.60
55711;DHT22;41612;51.994;5.880;2022-07-23T10:01:44;25.30;46.10
55711;DHT22;41612;51.994;5.880;2022-07-23T10:04:11;25.20;46.20
55711;DHT22;41612;51.994;5.880;2022-07-23T10:07:01;25.40;46.70
55711;DHT22;41612;51.994;5.880;2022-07-23T10:10:06;25.60;45.80
55711;DHT22;41612;51.994;5.880;2022-07-23T10:12:59;25.80;46.00
55711;DHT22;41612;51.994;5.880;2022-07-23T10:15:54;26.10;45.60
55711;DHT22;41612;51.994;5.880;2022-07-23T10:18:20;26.30;45.20
55711;DHT22;41612;51.994;5.880;2022-07-23T10:20:48;26.40;45.20
55711;DHT22;41612;51.994;5.880;2022-07-23T10:23:28;26.50;45.40
55711;DHT22;41612;51.994;5.880;2022-07-23T10:25:59;26.50;42.80
55711;DHT22;41612;51.994;5.880;2022-07-23T10:36:53;26.50;44.80
55711;DHT22;41612;51.994;5.880;2022-07-23T10:39:35;26.70;44.90
55711;DHT22;41612;51.994;5.880;2022-07-23T10:42:16;27.00;44.10
55711;DHT22;41612;51.994;5.880;2022-07-23T10:44:47;27.10;43.90
55711;DHT22;41612;51.994;5.880;2022-07-23T10:47:28;27.20;43.50
55711;DHT22;41612;51.994;5.880;2022-07-23T10:50:20;27.10;43.40
55711;DHT22;41612;51.994;5.880;2022-07-23T10:53:16;27.10;44.10
55711;DHT22;41612;51.994;5.880;2022-07-23T10:55:52;27.30;43.60
55711;DHT22;41612;51.994;5.880;2022-07-23T10:58:18;27.40;42.70
55711;DHT22;41612;51.994;5.880;2022-07-23T11:00:48;27.50;41.20
55711;DHT22;41612;51.994;5.880;2022-07-23T11:03:33;27.40;41.90
55711;DHT22;41612;51.994;5.880;2022-07-23T11:06:02;27.40;39.50
55711;DHT22;41612;51.994;5.880;2022-07-23T11:08:28;27.30;41.40
55711;DHT22;41612;51.994;5.880;2022-07-23T11:16:23;27.80;42.60
55711;DHT22;41612;51.994;5.880;2022-07-23T11:18:53;28.20;42.20
55711;DHT22;41612;51.994;5.880;2022-07-23T11:24:12;28.70;40.80
55711;DHT22;41612;51.994;5.880;2022-07-23T11:34:33;28.60;41.00
55711;DHT22;41612;51.994;5.880;2022-07-23T11:37:00;28.70;41.40
55711;DHT22;41612;51.994;5.880;2022-07-23T11:39:27;28.90;39.50
55711;DHT22;41612;51.994;5.880;2022-07-23T11:41:55;28.90;41.00
55711;DHT22;41612;51.994;5.880;2022-07-23T12:01:00;30.30;38.10
55711;DHT22;41612;51.994;5.880;2022-07-23T12:03:29;29.90;37.70
55711;DHT22;41612;51.994;5.880;2022-07-23T12:05:57;29.60;38.50
55711;DHT22;41612;51.994;5.880;2022-07-23T12:08:23;29.20;39.00
55711;DHT22;41612;51.994;5.880;2022-07-23T12:10:49;28.80;38.50
55711;DHT22;41612;51.994;5.880;2022-07-23T12:13:20;28.40;42.20
55711;DHT22;41612;51.994;5.880;2022-07-23T12:15:52;28.50;42.90
55711;DHT22;41612;51.994;5.880;2022-07-23T12:18:23;29.20;41.80
55711;DHT22;41612;51.994;5.880;2022-07-23T12:20:51;29.90;39.70
55711;DHT22;41612;51.994;5.880;2022-07-23T12:23:19;30.60;38.00
55711;DHT22;41612;51.994;5.880;2022-07-23T12:25:47;31.20;37.70
55711;DHT22;41612;51.994;5.880;2022-07-23T12:28:16;31.90;37.30
55711;DHT22;41612;51.994;5.880;2022-07-23T12:33:20;33.30;31.70
55711;DHT22;41612;51.994;5.880;2022-07-23T12:35:47;33.70;33.90
55711;DHT22;41612;51.994;5.880;2022-07-23T12:38:19;34.40;33.60
55711;DHT22;41612;51.994;5.880;2022-07-23T12:40:50;35.10;32.50
55711;DHT22;41612;51.994;5.880;2022-07-23T12:43:25;35.70;31.40
55711;DHT22;41612;51.994;5.880;2022-07-23T12:46:06;36.00;30.80
55711;DHT22;41612;51.994;5.880;2022-07-23T12:51:18;37.00;29.30
55711;DHT22;41612;51.994;5.880;2022-07-23T12:53:47;36.80;29.90
55711;DHT22;41612;51.994;5.880;2022-07-23T12:56:26;36.60;30.00
55711;DHT22;41612;51.994;5.880;2022-07-23T12:59:10;37.10;29.50
55711;DHT22;41612;51.994;5.880;2022-07-23T13:01:37;36.50;29.90
55711;DHT22;41612;51.994;5.880;2022-07-23T13:04:05;36.50;29.80
55711;DHT22;41612;51.994;5.880;2022-07-23T13:06:35;36.20;29.20
55711;DHT22;41612;51.994;5.880;2022-07-23T13:28:02;39.70;24.50
55711;DHT22;41612;51.994;5.880;2022-07-23T13:30:30;40.30;23.70
55711;DHT22;41612;51.994;5.880;2022-07-23T13:33:01;40.80;23.30
55711;DHT22;41612;51.994;5.880;2022-07-23T13:46:15;38.60;26.00
55711;DHT22;41612;51.994;5.880;2022-07-23T13:48:41;36.80;27.90
55711;DHT22;41612;51.994;5.880;2022-07-23T13:51:07;35.50;29.60
55711;DHT22;41612;51.994;5.880;2022-07-23T13:53:33;36.00;28.90
55711;DHT22;41612;51.994;5.880;2022-07-23T13:55:59;37.10;27.80
55711;DHT22;41612;51.994;5.880;2022-07-23T13:58:43;38.80;26.20
55711;DHT22;41612;51.994;5.880;2022-07-23T14:01:09;41.00;25.40
55711;DHT22;41612;51.994;5.880;2022-07-23T14:03:35;42.30;23.70
55711;DHT22;41612;51.994;5.880;2022-07-23T14:06:00;43.50;22.10
55711;DHT22;41612;51.994;5.880;2022-07-23T14:19:10;42.50;21.30
55711;DHT22;41612;51.994;5.880;2022-07-23T14:21:39;40.60;22.80
55711;DHT22;41612;51.994;5.880;2022-07-23T14:24:09;38.80;25.10
55711;DHT22;41612;51.994;5.880;2022-07-23T14:29:39;35.80;28.40
55711;DHT22;41612;51.994;5.880;2022-07-23T14:32:17;36.00;28.70
55711;DHT22;41612;51.994;5.880;2022-07-23T14:34:51;36.40;28.40
55711;DHT22;41612;51.994;5.880;2022-07-23T14:45:37;34.20;30.70
55711;DHT22;41612;51.994;5.880;2022-07-23T14:48:03;34.50;30.10
55711;DHT22;41612;51.994;5.880;2022-07-23T14:53:32;37.60;26.60
55711;DHT22;41612;51.994;5.880;2022-07-23T15:01:22;38.20;25.30
55711;DHT22;41612;51.994;5.880;2022-07-23T15:06:35;36.30;28.20
55711;DHT22;41612;51.994;5.880;2022-07-23T15:14:28;40.30;24.30
55711;DHT22;41612;51.994;5.880;2022-07-23T15:17:04;41.50;22.40
55711;DHT22;41612;51.994;5.880;2022-07-23T15:25:08;38.50;25.40
55711;DHT22;41612;51.994;5.880;2022-07-23T15:36:21;39.20;26.30
55711;DHT22;41612;51.994;5.880;2022-07-23T15:38:47;38.50;25.40
55711;DHT22;41612;51.994;5.880;2022-07-23T15:41:17;37.00;26.30
55711;DHT22;41612;51.994;5.880;2022-07-23T15:43:46;35.60;28.60
55711;DHT22;41612;51.994;5.880;2022-07-23T15:46:12;34.60;29.70
55711;DHT22;41612;51.994;5.880;2022-07-23T15:48:38;35.00;29.40
55711;DHT22;41612;51.994;5.880;2022-07-23T15:51:04;36.40;29.00
55711;DHT22;41612;51.994;5.880;2022-07-23T15:53:31;38.10;26.30
55711;DHT22;41612;51.994;5.880;2022-07-23T15:55:57;39.20;24.90
55711;DHT22;41612;51.994;5.880;2022-07-23T15:58:22;39.90;24.20
55711;DHT22;41612;51.994;5.880;2022-07-23T16:01:03;40.20;24.10
55711;DHT22;41612;51.994;5.880;2022-07-23T16:03:33;40.60;23.60
55711;DHT22;41612;51.994;5.880;2022-07-23T16:11:34;41.80;23.30
55711;DHT22;41612;51.994;5.880;2022-07-23T16:14:00;42.20;22.40
55711;DHT22;41612;51.994;5.880;2022-07-23T16:16:26;42.10;21.30
55711;DHT22;41612;51.994;5.880;2022-07-23T16:18:55;40.20;23.20
55711;DHT22;41612;51.994;5.880;2022-07-23T16:21:22;38.00;25.30
55711;DHT22;41612;51.994;5.880;2022-07-23T16:23:48;36.60;26.60
55711;DHT22;41612;51.994;5.880;2022-07-23T16:26:13;35.20;28.40
55711;DHT22;41612;51.994;5.880;2022-07-23T16:28:41;34.10;30.50
55711;DHT22;41612;51.994;5.880;2022-07-23T16:31:07;33.30;32.20
55711;DHT22;41612;51.994;5.880;2022-07-23T16:33:33;32.70;33.90
55711;DHT22;41612;51.994;5.880;2022-07-23T16:36:05;32.20;35.10
55711;DHT22;41612;51.994;5.880;2022-07-23T16:49:18;29.70;36.40
55711;DHT22;41612;51.994;5.880;2022-07-23T16:51:45;29.50;36.40
55711;DHT22;41612;51.994;5.880;2022-07-23T16:54:13;29.30;37.20
55711;DHT22;41612;51.994;5.880;2022-07-23T16:56:45;29.20;37.50
55711;DHT22;41612;51.994;5.880;2022-07-23T16:59:12;29.00;37.80
55711;DHT22;41612;51.994;5.880;2022-07-23T17:01:37;28.80;37.90
55711;DHT22;41612;51.994;5.880;2022-07-23T17:04:04;28.70;37.80
55711;DHT22;41612;51.994;5.880;2022-07-23T17:06:29;28.50;40.70
55711;DHT22;41612;51.994;5.880;2022-07-23T17:08:55;28.50;41.90
55711;DHT22;41612;51.994;5.880;2022-07-23T17:11:21;28.50;43.40
55711;DHT22;41612;51.994;5.880;2022-07-23T17:13:46;28.40;43.70
55711;DHT22;41612;51.994;5.880;2022-07-23T17:16:12;28.40;43.50
55711;DHT22;41612;51.994;5.880;2022-07-23T17:18:38;28.30;41.90
55711;DHT22;41612;51.994;5.880;2022-07-23T17:21:03;28.20;44.90
55711;DHT22;41612;51.994;5.880;2022-07-23T17:23:29;28.20;45.80
55711;DHT22;41612;51.994;5.880;2022-07-23T17:25:55;28.10;45.00
55711;DHT22;41612;51.994;5.880;2022-07-23T17:28:20;28.00;43.00
55711;DHT22;41612;51.994;5.880;2022-07-23T17:30:46;27.90;45.70
55711;DHT22;41612;51.994;5.880;2022-07-23T17:33:12;27.90;45.10
55711;DHT22;41612;51.994;5.880;2022-07-23T17:35:37;27.80;43.60
55711;DHT22;41612;51.994;5.880;2022-07-23T17:38:04;27.80;44.60
55711;DHT22;41612;51.994;5.880;2022-07-23T17:40:30;27.80;42.10
55711;DHT22;41612;51.994;5.880;2022-07-23T17:42:56;27.70;43.20
55711;DHT22;41612;51.994;5.880;2022-07-23T17:45:23;27.70;44.30
55711;DHT22;41612;51.994;5.880;2022-07-23T17:47:48;27.60;44.50
55711;DHT22;41612;51.994;5.880;2022-07-23T17:50:15;27.50;44.20
55711;DHT22;41612;51.994;5.880;2022-07-23T17:52:49;27.40;44.00
55711;DHT22;41612;51.994;5.880;2022-07-23T17:55:15;27.30;43.50
55711;DHT22;41612;51.994;5.880;2022-07-23T17:58:13;27.20;44.80
55711;DHT22;41612;51.994;5.880;2022-07-23T20:11:15;23.60;59.00
55711;DHT22;41612;51.994;5.880;2022-07-23T20:13:41;23.50;59.30
55711;DHT22;41612;51.994;5.880;2022-07-23T20:16:07;23.50;59.40
55711;DHT22;41612;51.994;5.880;2022-07-23T20:18:33;23.40;59.50
55711;DHT22;41612;51.994;5.880;2022-07-23T20:20:58;23.40;59.60
55711;DHT22;41612;51.994;5.880;2022-07-23T20:23:24;23.30;59.70
55711;DHT22;41612;51.994;5.880;2022-07-23T20:25:51;23.30;59.80
55711;DHT22;41612;51.994;5.880;2022-07-23T20:28:18;23.20;59.90
55711;DHT22;41612;51.994;5.880;2022-07-23T20:30:44;23.20;60.00